createdAt,value
2018-02-02T00:00:21.894Z,5.83
2018-02-02T00:02:59.823Z,5.78
2018-02-02T00:05:31.423Z,5.76
2018-02-02T00:08:07.141Z,5.71
2018-02-02T00:10:45.098Z,5.52
2018-02-02T00:13:18.596Z,5.45
2018-02-02T00:15:56.569Z,5.39
2018-02-02T00:18:24.166Z,5.35
2018-02-02T00:20:59.931Z,5.29
2018-02-02T00:23:41.049Z,5.30
2018-02-02T00:26:18.467Z,5.20
2018-02-02T00:28:47.575Z,5.23
2018-02-02T00:31:20.046Z,5.25
2018-02-02T00:33:49.254Z,5.23
2018-02-02T00:36:27.750Z,5.25
2018-02-02T00:38:56.505Z,5.29
2018-02-02T00:41:26.971Z,5.33
2018-02-02T00:44:05.004Z,5.33
2018-02-02T00:46:47.759Z,5.31
2018-02-02T00:49:22.241Z,5.33
2018-02-02T00:51:57.356Z,5.23
2018-02-02T00:54:36.452Z,5.21
2018-02-02T00:57:04.143Z,5.21
2018-02-02T00:59:31.702Z,5.16
2018-02-02T01:01:59.357Z,5.18
2018-02-02T01:04:26.939Z,5.09
2018-02-02T01:06:54.675Z,4.92
2018-02-02T01:09:22.335Z,4.82
2018-02-02T01:12:04.822Z,4.75
2018-02-02T01:14:42.549Z,4.79
2018-02-02T01:17:21.603Z,4.97
2018-02-02T01:19:52.221Z,4.96
2018-02-02T01:22:19.974Z,4.89
2018-02-02T01:24:57.753Z,4.83
2018-02-02T01:27:36.566Z,4.76
2018-02-02T01:30:11.099Z,4.76
2018-02-02T01:32:39.711Z,4.80
2018-02-02T01:35:14.575Z,4.82
2018-02-02T01:37:42.266Z,4.71
2018-02-02T01:40:16.993Z,4.58
2018-02-02T01:42:47.593Z,4.61
2018-02-02T01:45:19.241Z,4.66
2018-02-02T01:47:47.402Z,4.61
2018-02-02T01:50:15.035Z,4.43
2018-02-02T01:52:55.326Z,4.45
2018-02-02T01:55:37.723Z,4.58
2018-02-02T01:58:06.328Z,4.55
2018-02-02T02:00:34.803Z,4.75
2018-02-02T02:03:14.193Z,4.83
2018-02-02T02:06:00.230Z,4.82
2018-02-02T02:08:27.890Z,4.86
2018-02-02T02:10:55.604Z,4.83
2018-02-02T02:13:23.334Z,4.80
2018-02-02T02:15:54.571Z,4.91
2018-02-02T02:18:23.297Z,4.79
2018-02-02T02:20:51.078Z,4.75
2018-02-02T02:23:19.201Z,4.82
2018-02-02T02:25:54.152Z,4.82
2018-02-02T02:28:39.494Z,4.73
2018-02-02T02:31:14.125Z,4.67
2018-02-02T02:33:42.707Z,4.65
2018-02-02T02:36:10.302Z,4.70
2018-02-02T02:38:38.743Z,4.75
2018-02-02T02:41:06.346Z,4.82
2018-02-02T02:43:33.957Z,4.73
2018-02-02T02:46:01.490Z,4.66
2018-02-02T02:48:32.552Z,4.65
2018-02-02T02:51:03.156Z,4.65
2018-02-02T02:53:31.575Z,4.61
2018-02-02T02:55:59.110Z,4.58
2018-02-02T02:58:27.766Z,4.52
2018-02-02T03:00:55.342Z,4.49
2018-02-02T03:03:23.016Z,4.50
2018-02-02T03:05:51.641Z,4.60
2018-02-02T03:08:19.638Z,4.68
2018-02-02T03:10:47.582Z,4.72
2018-02-02T03:13:15.138Z,4.77
2018-02-02T03:15:43.711Z,4.77
2018-02-02T03:18:12.409Z,4.78
2018-02-02T03:20:49.893Z,4.73
2018-02-02T03:23:21.498Z,4.75
2018-02-02T03:25:49.923Z,4.90
2018-02-02T03:28:17.542Z,4.95
2018-02-02T03:30:46.293Z,5.11
2018-02-02T03:33:13.987Z,5.23
2018-02-02T03:35:57.467Z,5.27
2018-02-02T03:38:28.734Z,5.30
2018-02-02T03:40:57.881Z,5.29
2018-02-02T03:43:28.739Z,5.33
2018-02-02T03:45:56.575Z,5.37
2018-02-02T03:48:24.343Z,5.43
2018-02-02T03:51:13.954Z,5.45
2018-02-02T03:53:47.347Z,5.42
2018-02-02T03:56:36.913Z,5.44
2018-02-02T03:59:14.621Z,5.39
2018-02-02T04:01:49.358Z,5.48
2018-02-02T04:04:19.931Z,5.44
2018-02-02T04:06:47.505Z,5.58
2018-02-02T04:09:15.074Z,6.02
2018-02-02T04:11:44.259Z,7.05
2018-02-02T04:14:15.607Z,7.82
2018-02-02T04:16:43.338Z,7.60
2018-02-02T04:19:11.091Z,7.30
2018-02-02T04:21:39.055Z,7.03
2018-02-02T04:24:07.571Z,6.80
2018-02-02T04:26:35.978Z,6.67
2018-02-02T04:29:04.691Z,6.43
2018-02-02T04:31:33.048Z,6.25
2018-02-02T04:34:00.938Z,6.25
2018-02-02T04:36:35.601Z,6.08
2018-02-02T04:39:03.162Z,6.15
2018-02-02T04:41:30.762Z,6.05
2018-02-02T04:43:59.142Z,6.14
2018-02-02T04:46:26.680Z,6.16
2018-02-02T04:48:58.115Z,6.22
2018-02-02T04:51:25.654Z,6.30
2018-02-02T04:54:08.207Z,6.44
2018-02-02T04:56:39.540Z,6.85
2018-02-02T04:59:08.032Z,6.92
2018-02-02T05:01:36.933Z,7.08
2018-02-02T05:04:05.410Z,7.24
2018-02-02T05:06:34.103Z,7.39
2018-02-02T05:09:01.779Z,7.41
2018-02-02T05:11:29.818Z,7.48
2018-02-02T05:13:58.748Z,7.52
2018-02-02T05:16:26.373Z,7.54
2018-02-02T05:18:57.246Z,7.69
2018-02-02T05:21:24.979Z,7.72
2018-02-02T05:23:53.470Z,7.65
2018-02-02T05:26:21.418Z,7.58
2018-02-02T05:28:50.112Z,7.48
2018-02-02T05:31:18.703Z,7.41
2018-02-02T05:33:56.490Z,7.36
2018-02-02T05:36:24.408Z,7.32
2018-02-02T05:38:52.122Z,7.25
2018-02-02T05:41:19.770Z,7.20
2018-02-02T05:43:48.344Z,7.16
2018-02-02T05:46:17.075Z,7.13
2018-02-02T05:48:44.935Z,7.05
2018-02-02T05:51:14.087Z,7.08
2018-02-02T05:53:47.763Z,7.09
2018-02-02T05:56:18.244Z,7.19
2018-02-02T05:58:53.941Z,7.37
2018-02-02T06:01:25.490Z,7.23
2018-02-02T06:04:01.207Z,7.29
2018-02-02T06:06:29.221Z,7.29
2018-02-02T06:08:57.638Z,7.22
2018-02-02T06:11:25.234Z,7.18
2018-02-02T06:13:52.900Z,7.22
2018-02-02T06:16:20.506Z,7.31
2018-02-02T06:18:49.894Z,7.41
2018-02-02T06:21:17.538Z,7.39
2018-02-02T06:23:45.558Z,7.38
2018-02-02T06:26:13.295Z,7.22
2018-02-02T06:28:40.911Z,7.22
2018-02-02T06:31:08.508Z,7.20
2018-02-02T06:33:39.493Z,7.17
2018-02-02T06:36:08.103Z,7.23
2018-02-02T06:38:38.565Z,7.26
2018-02-02T06:41:09.304Z,7.31
2018-02-02T06:43:38.282Z,7.36
2018-02-02T06:46:06.246Z,7.38
2018-02-02T06:48:34.274Z,7.38
2018-02-02T06:51:02.251Z,7.53
2018-02-02T06:53:33.907Z,7.53
2018-02-02T06:56:14.615Z,7.43
2018-02-02T06:58:51.999Z,7.37
2018-02-02T07:01:20.679Z,7.34
2018-02-02T07:03:59.730Z,7.17
2018-02-02T07:06:38.914Z,7.09
2018-02-02T07:09:07.454Z,7.08
2018-02-02T07:11:37.949Z,7.16
2018-02-02T07:16:35.942Z,7.51
2018-02-02T07:19:03.537Z,7.66
2018-02-02T07:21:31.102Z,7.94
2018-02-02T07:23:59.546Z,8.17
2018-02-02T07:26:27.460Z,8.49
2018-02-02T07:28:56.054Z,9.03
2018-02-02T07:31:23.599Z,9.53
2018-02-02T07:33:54.571Z,10.07
2018-02-02T07:36:26.361Z,10.60
2018-02-02T07:38:54.654Z,11.03
2018-02-02T07:41:29.104Z,11.20
2018-02-02T07:43:57.115Z,11.34
2018-02-02T07:46:24.662Z,11.33
2018-02-02T07:48:52.231Z,11.45
2018-02-02T07:51:20.658Z,11.65
2018-02-02T07:53:49.652Z,11.65
2018-02-02T07:56:18.206Z,11.80
2018-02-02T07:58:55.650Z,11.91
2018-02-02T08:01:26.266Z,12.01
2018-02-02T08:03:53.946Z,12.18
2018-02-02T08:06:21.543Z,12.41
2018-02-02T08:09:02.207Z,12.68
2018-02-02T08:11:33.050Z,12.99
2018-02-02T08:14:00.633Z,13.29
2018-02-02T08:16:32.027Z,13.49
2018-02-02T08:18:59.823Z,13.82
2018-02-02T08:21:28.187Z,13.88
2018-02-02T08:23:58.579Z,14.00
2018-02-02T08:26:26.230Z,14.11
2018-02-02T08:28:53.790Z,14.18
2018-02-02T08:31:24.127Z,14.23
2018-02-02T08:33:52.559Z,14.29
2018-02-02T08:36:23.125Z,14.40
2018-02-02T08:38:51.123Z,14.51
2018-02-02T08:41:18.994Z,14.74
2018-02-02T08:43:46.619Z,14.84
2018-02-02T08:46:14.401Z,14.98
2018-02-02T08:48:42.879Z,15.04
2018-02-02T08:51:10.554Z,15.08
2018-02-02T08:53:39.182Z,15.34
2018-02-02T08:56:07.102Z,15.58
2018-02-02T08:58:34.702Z,15.83
2018-02-02T09:01:10.875Z,16.12
2018-02-02T09:03:38.410Z,16.54
2018-02-02T09:06:06.761Z,16.90
2018-02-02T09:08:35.369Z,17.16
2018-02-02T09:11:03.310Z,17.38
2018-02-02T09:13:30.904Z,17.51
2018-02-02T09:15:58.505Z,17.62
2018-02-02T09:18:27.366Z,17.62
2018-02-02T09:20:55.832Z,17.48
2018-02-02T09:23:25.701Z,17.67
2018-02-02T09:25:54.889Z,17.90
2018-02-02T09:28:23.898Z,18.26
2018-02-02T09:30:51.598Z,18.47
2018-02-02T09:33:19.321Z,18.71
2018-02-02T09:35:47.642Z,18.86
2018-02-02T09:38:15.387Z,18.92
2018-02-02T09:40:43.067Z,19.03
2018-02-02T09:43:10.674Z,19.27
2018-02-02T09:45:38.486Z,19.35
2018-02-02T09:48:06.036Z,19.47
2018-02-02T09:50:34.354Z,19.68
2018-02-02T09:53:01.898Z,19.91
2018-02-02T09:55:30.330Z,19.96
2018-02-02T09:57:58.730Z,20.24
2018-02-02T10:00:26.263Z,20.39
2018-02-02T10:02:53.854Z,20.36
2018-02-02T10:05:21.901Z,20.64
2018-02-02T10:07:49.495Z,20.77
2018-02-02T10:10:18.187Z,20.94
2018-02-02T10:12:45.731Z,20.77
2018-02-02T10:15:13.367Z,20.73
2018-02-02T10:17:41.046Z,20.77
2018-02-02T10:20:08.664Z,21.03
2018-02-02T10:22:46.594Z,21.39
2018-02-02T10:25:14.363Z,21.67
2018-02-02T10:27:42.386Z,21.47
2018-02-02T10:30:10.017Z,21.37
2018-02-02T10:32:37.855Z,21.16
2018-02-02T10:35:05.532Z,20.91
2018-02-02T10:37:33.378Z,20.58
2018-02-02T10:40:01.423Z,20.44
2018-02-02T10:42:32.144Z,20.32
2018-02-02T10:45:00.684Z,20.46
2018-02-02T10:47:28.411Z,20.46
2018-02-02T10:49:57.735Z,20.35
2018-02-02T10:52:28.248Z,20.62
2018-02-02T10:54:56.678Z,20.83
2018-02-02T10:57:24.678Z,21.24
2018-02-02T10:59:52.282Z,21.48
2018-02-02T11:05:24.362Z,22.03
2018-02-02T11:07:51.894Z,22.18
2018-02-02T11:10:19.443Z,22.38
2018-02-02T11:12:47.844Z,22.35
2018-02-02T11:15:17.427Z,22.24
2018-02-02T11:17:45.698Z,22.24
2018-02-02T11:20:13.264Z,22.25
2018-02-02T11:22:41.205Z,22.18
2018-02-02T11:25:08.993Z,22.13
2018-02-02T11:27:38.042Z,22.04
2018-02-02T11:30:05.596Z,21.87
2018-02-02T11:32:33.513Z,21.71
2018-02-02T11:35:02.924Z,21.35
2018-02-02T11:37:30.528Z,21.39
2018-02-02T11:39:58.438Z,21.51
2018-02-02T11:42:26.286Z,21.62
2018-02-02T11:44:54.695Z,21.69
2018-02-02T11:47:23.070Z,21.50
2018-02-02T11:49:51.502Z,21.37
2018-02-02T11:52:20.035Z,21.37
2018-02-02T11:54:48.104Z,21.17
2018-02-02T11:57:16.074Z,21.19
2018-02-02T11:59:49.490Z,21.06
2018-02-02T12:02:18.161Z,21.11
2018-02-02T12:04:45.759Z,20.87
2018-02-02T12:07:13.423Z,21.01
2018-02-02T12:09:41.116Z,20.75
2018-02-02T12:12:08.651Z,20.44
2018-02-02T12:14:36.338Z,20.31
2018-02-02T12:17:03.974Z,19.95
2018-02-02T12:19:31.627Z,19.77
2018-02-02T12:25:14.625Z,19.40
2018-02-02T12:31:04.363Z,19.11
2018-02-02T12:33:39.242Z,18.92
2018-02-02T12:36:28.906Z,18.87
2018-02-02T12:38:58.197Z,18.83
2018-02-02T12:41:26.839Z,18.78
2018-02-02T12:43:54.442Z,18.81
2018-02-02T12:46:25.726Z,18.87
2018-02-02T12:48:58.550Z,18.95
2018-02-02T12:51:34.898Z,18.90
2018-02-02T12:54:02.544Z,18.94
2018-02-02T12:56:37.857Z,18.91
2018-02-02T12:59:07.442Z,18.88
2018-02-02T13:01:35.318Z,18.87
2018-02-02T13:04:03.047Z,18.73
2018-02-02T13:06:33.634Z,18.65
2018-02-02T13:09:01.314Z,18.67
2018-02-02T13:11:39.158Z,18.49
2018-02-02T13:14:07.374Z,18.32
2018-02-02T13:16:36.446Z,18.30
2018-02-02T13:19:12.403Z,18.38
2018-02-02T13:24:39.106Z,18.10
2018-02-02T13:27:09.602Z,17.93
2018-02-02T13:29:40.533Z,17.90
2018-02-02T13:32:11.555Z,17.78
2018-02-02T13:34:40.064Z,17.60
2018-02-02T13:37:10.535Z,17.45
2018-02-02T13:39:39.144Z,17.40
2018-02-02T13:42:09.834Z,17.28
2018-02-02T13:44:48.602Z,17.17
2018-02-02T13:47:17.402Z,17.02
2018-02-02T13:49:56.410Z,16.88
2018-02-02T13:52:24.039Z,16.89
2018-02-02T13:54:51.757Z,16.81
2018-02-02T13:57:19.559Z,16.69
2018-02-02T13:59:50.352Z,16.66
2018-02-02T14:02:21.251Z,16.72
2018-02-02T14:04:48.902Z,16.68
2018-02-02T14:07:17.246Z,16.56
2018-02-02T14:09:45.627Z,16.49
2018-02-02T14:12:16.391Z,16.47
2018-02-02T14:14:50.966Z,16.54
2018-02-02T14:17:21.549Z,16.53
2018-02-02T14:19:50.192Z,16.45
2018-02-02T14:22:17.770Z,16.42
2018-02-02T14:24:52.286Z,16.26
2018-02-02T14:27:20.242Z,16.15
2018-02-02T14:29:48.101Z,16.17
2018-02-02T14:32:16.794Z,16.16
2018-02-02T14:34:44.378Z,16.14
2018-02-02T14:37:11.933Z,16.11
2018-02-02T14:39:39.659Z,16.10
2018-02-02T14:42:07.264Z,16.03
2018-02-02T14:44:35.058Z,15.98
2018-02-02T14:47:02.597Z,16.04
2018-02-02T14:49:30.144Z,16.06
2018-02-02T14:51:57.747Z,15.91
2018-02-02T14:54:26.231Z,15.81
2018-02-02T14:56:54.012Z,15.77
2018-02-02T14:59:24.758Z,15.63
2018-02-02T15:01:52.343Z,15.48
2018-02-02T15:04:20.126Z,15.42
2018-02-02T15:06:47.718Z,15.20
2018-02-02T15:09:15.782Z,15.09
2018-02-02T15:11:43.322Z,15.04
2018-02-02T15:14:10.986Z,14.96
2018-02-02T15:16:38.958Z,14.85
2018-02-02T15:19:06.601Z,14.73
2018-02-02T15:21:34.431Z,14.60
2018-02-02T15:24:02.074Z,14.52
2018-02-02T15:26:30.574Z,14.44
2018-02-02T15:28:58.236Z,14.39
2018-02-02T15:31:25.988Z,14.51
2018-02-02T15:33:53.723Z,14.51
2018-02-02T15:36:21.511Z,14.49
2018-02-02T15:38:49.198Z,14.46
2018-02-02T15:41:16.867Z,14.41
2018-02-02T15:43:44.606Z,14.30
2018-02-02T15:46:12.263Z,14.28
2018-02-02T15:48:39.991Z,14.22
2018-02-02T15:51:07.653Z,14.12
2018-02-02T15:53:35.308Z,14.08
2018-02-02T15:56:02.866Z,13.98
2018-02-02T15:58:31.309Z,13.88
2018-02-02T16:00:58.934Z,13.95
2018-02-02T16:03:26.535Z,13.93
2018-02-02T16:05:54.217Z,13.93
2018-02-02T16:08:21.843Z,14.07
2018-02-02T16:10:49.390Z,14.25
2018-02-02T16:13:17.579Z,14.32
2018-02-02T16:15:46.171Z,14.34
2018-02-02T16:18:13.779Z,14.36
2018-02-02T16:20:41.318Z,14.37
2018-02-02T16:23:08.935Z,14.43
2018-02-02T16:25:36.480Z,14.50
2018-02-02T16:28:04.082Z,14.53
2018-02-02T16:30:31.690Z,14.52
2018-02-02T16:32:59.522Z,14.51
2018-02-02T16:35:29.863Z,14.47
2018-02-02T16:37:57.446Z,14.49
2018-02-02T16:40:25.138Z,14.49
2018-02-02T16:42:52.743Z,14.55
2018-02-02T16:45:20.391Z,14.49
2018-02-02T16:47:48.075Z,14.53
2018-02-02T16:50:15.750Z,14.53
2018-02-02T16:52:43.420Z,14.52
2018-02-02T16:55:11.529Z,14.47
2018-02-02T16:57:39.178Z,14.45
2018-02-02T17:00:07.082Z,14.38
2018-02-02T17:02:34.771Z,14.49
2018-02-02T17:05:05.228Z,14.47
2018-02-02T17:07:32.874Z,14.42
2018-02-02T17:10:00.532Z,14.44
2018-02-02T17:12:28.130Z,14.56
2018-02-02T17:14:55.666Z,14.52
2018-02-02T17:17:24.099Z,14.55
2018-02-02T17:19:51.731Z,14.67
2018-02-02T17:22:19.343Z,14.68
2018-02-02T17:24:53.754Z,14.68
2018-02-02T17:27:21.478Z,14.66
2018-02-02T17:29:49.054Z,14.66
2018-02-02T17:32:17.647Z,14.66
2018-02-02T17:34:45.202Z,14.62
2018-02-02T17:37:12.898Z,14.55
2018-02-02T17:39:40.451Z,14.51
2018-02-02T17:42:08.171Z,14.55
2018-02-02T17:44:35.876Z,14.45
2018-02-02T17:47:03.447Z,14.40
2018-02-02T17:49:32.454Z,14.29
2018-02-02T17:52:00.295Z,14.17
2018-02-02T17:54:28.319Z,14.13
2018-02-02T17:56:56.266Z,14.08
2018-02-02T17:59:23.891Z,14.06
2018-02-02T18:01:57.242Z,14.05
2018-02-02T18:04:25.139Z,13.96
2018-02-02T18:06:52.916Z,13.92
2018-02-02T18:09:20.662Z,13.86
2018-02-02T18:11:48.242Z,13.89
2018-02-02T18:14:16.682Z,13.80
2018-02-02T18:16:45.222Z,13.81
2018-02-02T18:19:13.839Z,13.78
2018-02-02T18:21:44.195Z,13.80
2018-02-02T18:24:11.834Z,13.78
2018-02-02T18:26:40.202Z,13.76
2018-02-02T18:29:08.041Z,13.74
2018-02-02T18:31:35.695Z,13.76
2018-02-02T18:34:03.474Z,13.75
2018-02-02T18:36:31.095Z,13.67
2018-02-02T18:38:58.730Z,13.64
2018-02-02T18:41:26.379Z,13.63
2018-02-02T18:43:53.962Z,13.58
2018-02-02T18:46:21.767Z,13.55
2018-02-02T18:48:49.485Z,13.55
2018-02-02T18:51:17.271Z,13.62
2018-02-02T18:53:45.218Z,13.55
2018-02-02T18:56:13.017Z,13.55
2018-02-02T18:58:40.730Z,13.56
2018-02-02T19:01:08.277Z,13.63
2018-02-02T19:03:36.983Z,13.81
2018-02-02T19:06:04.618Z,13.95
2018-02-02T19:08:32.331Z,14.13
2018-02-02T19:11:00.731Z,14.10
2018-02-02T19:13:28.311Z,14.12
2018-02-02T19:15:56.478Z,14.18
2018-02-02T19:18:24.982Z,14.22
2018-02-02T19:20:54.038Z,14.21
2018-02-02T19:23:22.487Z,14.20
2018-02-02T19:25:50.283Z,14.24
2018-02-02T19:28:17.897Z,14.28
2018-02-02T19:30:45.587Z,14.32
2018-02-02T19:33:13.182Z,14.34
2018-02-02T19:35:40.740Z,14.30
2018-02-02T19:38:09.556Z,14.27
2018-02-02T19:40:38.855Z,14.28
2018-02-02T19:43:06.420Z,14.25
2018-02-02T19:45:34.162Z,14.18
2018-02-02T19:48:01.798Z,14.23
2018-02-02T19:50:29.351Z,14.12
2018-02-02T19:52:57.845Z,14.02
2018-02-02T19:55:26.487Z,13.95
2018-02-02T19:57:55.962Z,13.91
2018-02-02T20:00:23.562Z,13.83
2018-02-02T20:03:06.543Z,13.77
2018-02-02T20:05:37.198Z,13.72
2018-02-02T20:08:05.786Z,13.70
2018-02-02T20:10:48.212Z,13.71
2018-02-02T20:13:27.111Z,13.73
2018-02-02T20:15:55.541Z,13.88
2018-02-02T20:18:26.271Z,13.98
2018-02-02T20:20:54.478Z,14.13
2018-02-02T20:23:22.319Z,14.51
2018-02-02T20:25:50.836Z,14.65
2018-02-02T20:31:04.570Z,15.17
2018-02-02T20:33:39.341Z,15.19
2018-02-02T20:36:07.058Z,15.33
2018-02-02T20:38:35.790Z,15.35
2018-02-02T20:41:03.518Z,15.37
2018-02-02T20:43:38.114Z,15.29
2018-02-02T20:46:08.437Z,15.24
2018-02-02T20:48:36.806Z,15.10
2018-02-02T20:51:05.177Z,14.99
2018-02-02T20:53:32.806Z,14.85
2018-02-02T20:56:00.538Z,14.68
2018-02-02T20:58:38.079Z,14.54
2018-02-02T21:01:06.562Z,14.40
2018-02-02T21:03:34.184Z,14.29
2018-02-02T21:06:15.099Z,14.24
2018-02-02T21:08:53.670Z,14.14
2018-02-02T21:11:29.307Z,14.07
2018-02-02T21:13:56.908Z,13.98
2018-02-02T21:16:24.548Z,13.97
2018-02-02T21:18:55.008Z,13.95
2018-02-02T21:21:25.354Z,13.88
2018-02-02T21:23:54.242Z,13.75
2018-02-02T21:26:22.886Z,13.72
2018-02-02T21:28:56.292Z,13.63
2018-02-02T21:31:23.856Z,13.49
2018-02-02T21:33:52.375Z,13.44
2018-02-02T21:36:22.910Z,13.39
2018-02-02T21:38:51.355Z,13.27
2018-02-02T21:41:19.021Z,13.06
2018-02-02T21:43:47.290Z,13.05
2018-02-02T21:46:21.830Z,12.94
2018-02-02T21:48:52.448Z,12.85
2018-02-02T21:51:21.146Z,12.78
2018-02-02T21:53:49.767Z,12.76
2018-02-02T21:56:27.722Z,12.76
2018-02-02T21:58:58.294Z,12.61
2018-02-02T22:01:26.682Z,12.53
2018-02-02T22:03:54.230Z,12.57
2018-02-02T22:06:31.986Z,12.50
2018-02-02T22:09:00.386Z,12.39
2018-02-02T22:11:31.407Z,12.29
2018-02-02T22:14:10.532Z,12.30
2018-02-02T22:16:38.127Z,12.33
2018-02-02T22:19:05.698Z,12.35
2018-02-02T22:21:36.206Z,12.33
2018-02-02T22:24:07.264Z,12.26
2018-02-02T22:26:38.735Z,12.19
2018-02-02T22:29:07.282Z,12.11
2018-02-02T22:31:37.683Z,12.01
2018-02-02T22:34:10.831Z,11.90
2018-02-02T22:36:39.366Z,11.76
2018-02-02T22:39:10.154Z,11.75
2018-02-02T22:41:49.567Z,11.61
2018-02-02T22:44:21.192Z,11.52
2018-02-02T22:46:48.875Z,11.44
2018-02-02T22:49:17.902Z,11.31
2018-02-02T22:51:48.379Z,11.25
2018-02-02T22:54:29.814Z,11.16
2018-02-02T22:57:01.227Z,11.08
2018-02-02T22:59:29.547Z,11.12
2018-02-02T23:01:57.249Z,11.24
2018-02-02T23:04:27.859Z,11.28
2018-02-02T23:07:05.540Z,11.30
2018-02-02T23:09:41.278Z,11.26
2018-02-02T23:12:16.936Z,11.13
2018-02-02T23:15:01.635Z,11.21
2018-02-02T23:17:44.366Z,11.16
2018-02-02T23:20:17.698Z,11.25
2018-02-02T23:22:45.275Z,11.33
2018-02-02T23:25:23.115Z,11.35
2018-02-02T23:28:00.918Z,11.35
2018-02-02T23:30:30.518Z,11.41
2018-02-02T23:33:05.943Z,11.38
2018-02-02T23:35:33.766Z,11.34
2018-02-02T23:38:04.420Z,11.29
2018-02-02T23:40:32.086Z,11.17
2018-02-02T23:43:13.313Z,11.06
2018-02-02T23:45:51.059Z,10.89
2018-02-02T23:48:25.483Z,10.72
2018-02-02T23:50:53.158Z,10.57
2018-02-02T23:53:20.766Z,10.53
2018-02-02T23:56:03.252Z,10.51
2018-02-02T23:58:30.913Z,10.51
